Time;durP1;ratioP1;P1;durP2;ratioP2;P2;SDS_P1;SDS_P2;PMS_P1;PMS_P2;Temp;Humidity;BMP_temperature;BMP_pressure;BME280_temperature;BME280_humidity;BME280_pressure;Samples;Min_cycle;Max_cycle;Signal;HPM_P1;HPM_P2
2023/04/21 00:00:51;;;;;;;;;;;10.10;77.50;;;;;;5030416;28;19949;-73
2023/04/21 00:03:19;;;;;;;;;;;10.10;77.50;;;;;;5030776;28;19925;-73
2023/04/21 00:05:45;;;;;;;;;;;10.10;77.50;;;;;;5030418;28;20369;-73
2023/04/21 00:08:11;;;;;;;;;;;10.00;77.50;;;;;;5030118;28;19909;-73
2023/04/21 00:10:36;;;;;;;;;;;10.00;77.50;;;;;;5030268;28;19917;-73
2023/04/21 00:13:02;;;;;;;;;;;10.00;77.60;;;;;;5030154;28;20294;-73
2023/04/21 00:15:28;;;;;;;;;;;10.00;77.50;;;;;;5030203;28;19921;-73
2023/04/21 00:17:53;;;;;;;;;;;9.90;77.50;;;;;;5030124;28;20184;-73
2023/04/21 00:20:19;;;;;;;;;;;9.80;77.50;;;;;;5012507;28;19923;-74
2023/04/21 00:22:44;;;;;;;;;;;9.90;77.60;;;;;;5030165;28;19917;-73
2023/04/21 00:25:10;;;;;;;;;;;9.90;77.60;;;;;;5030180;28;20372;-73
2023/04/21 00:27:36;;;;;;;;;;;9.80;77.50;;;;;;5030018;28;19920;-73
2023/04/21 00:30:01;;;;;;;;;;;9.80;77.50;;;;;;5030038;28;19999;-73
2023/04/21 00:32:27;;;;;;;;;;;9.70;77.40;;;;;;5011983;28;19951;-73
2023/04/21 00:34:52;;;;;;;;;;;9.70;77.50;;;;;;5029820;28;19950;-73
2023/04/21 00:37:18;;;;;;;;;;;9.70;77.40;;;;;;5029812;28;19914;-73
2023/04/21 00:39:44;;;;;;;;;;;9.70;77.50;;;;;;5029926;28;19920;-73
2023/04/21 00:42:09;;;;;;;;;;;9.70;77.60;;;;;;5029861;28;19914;-74
2023/04/21 00:44:35;;;;;;;;;;;9.70;77.60;;;;;;5029690;28;19935;-74
2023/04/21 00:47:01;;;;;;;;;;;9.70;77.60;;;;;;5029539;28;19917;-73
2023/04/21 00:49:26;;;;;;;;;;;9.70;77.60;;;;;;5029552;28;20003;-73
2023/04/21 00:51:52;;;;;;;;;;;9.70;77.50;;;;;;5029107;28;19913;-73
2023/04/21 00:54:18;;;;;;;;;;;9.70;77.60;;;;;;5029416;28;19913;-74
2023/04/21 00:56:44;;;;;;;;;;;9.70;77.60;;;;;;5011644;28;19917;-74
2023/04/21 00:59:09;;;;;;;;;;;9.70;77.70;;;;;;5029357;28;19959;-73
2023/04/21 01:01:35;;;;;;;;;;;9.70;77.60;;;;;;5029322;28;20000;-73
2023/04/21 01:04:02;;;;;;;;;;;9.80;77.60;;;;;;5029260;28;19979;-73
2023/04/21 01:06:31;;;;;;;;;;;9.80;77.50;;;;;;5029099;28;20380;-73
2023/04/21 01:08:57;;;;;;;;;;;9.70;77.50;;;;;;5029251;28;20412;-73
2023/04/21 01:11:23;;;;;;;;;;;9.70;77.50;;;;;;5029047;28;19952;-74
2023/04/21 01:13:51;;;;;;;;;;;9.70;77.50;;;;;;5028842;28;19991;-73
2023/04/21 01:16:17;;;;;;;;;;;9.80;77.50;;;;;;5028887;28;20372;-73
2023/04/21 01:18:43;;;;;;;;;;;9.80;77.50;;;;;;5011182;28;19922;-73
2023/04/21 01:21:10;;;;;;;;;;;9.80;77.60;;;;;;5029032;28;19913;-73
2023/04/21 01:23:35;;;;;;;;;;;9.80;77.50;;;;;;5028881;28;19949;-74
2023/04/21 01:26:01;;;;;;;;;;;9.80;77.50;;;;;;5028795;28;19975;-73
2023/04/21 01:28:26;;;;;;;;;;;9.80;77.60;;;;;;5028961;28;19913;-73
2023/04/21 01:30:52;;;;;;;;;;;9.80;77.50;;;;;;4994734;28;19913;-73
2023/04/21 01:33:18;;;;;;;;;;;9.80;77.50;;;;;;5028511;28;19935;-73
2023/04/21 01:35:44;;;;;;;;;;;9.90;77.50;;;;;;5028621;28;20030;-73
2023/04/21 01:38:10;;;;;;;;;;;9.80;77.50;;;;;;5028946;28;20032;-74
2023/04/21 01:40:36;;;;;;;;;;;9.80;77.50;;;;;;5011004;28;19960;-73
2023/04/21 01:43:02;;;;;;;;;;;9.80;78.00;;;;;;5028483;28;20110;-73
2023/04/21 01:45:29;;;;;;;;;;;9.80;77.50;;;;;;5010998;28;19913;-74
2023/04/21 01:47:54;;;;;;;;;;;9.80;77.50;;;;;;5028335;28;19914;-73
2023/04/21 01:50:20;;;;;;;;;;;9.80;77.50;;;;;;5028456;28;20286;-74
2023/04/21 01:52:45;;;;;;;;;;;9.80;77.50;;;;;;5010464;28;20067;-73
2023/04/21 01:55:11;;;;;;;;;;;9.80;77.50;;;;;;5028360;28;20078;-74
2023/04/21 01:57:37;;;;;;;;;;;9.70;77.40;;;;;;5028314;28;19917;-74
2023/04/21 02:00:03;;;;;;;;;;;9.70;77.50;;;;;;5028285;28;19921;-74
2023/04/21 02:02:28;;;;;;;;;;;9.70;77.50;;;;;;5027459;28;19920;-74
2023/04/21 02:04:54;;;;;;;;;;;9.70;77.50;;;;;;5010648;28;20277;-74
2023/04/21 02:07:19;;;;;;;;;;;9.70;77.40;;;;;;5028039;28;19912;-73
2023/04/21 02:09:45;;;;;;;;;;;9.70;77.40;;;;;;5028160;28;19913;-74
2023/04/21 02:12:10;;;;;;;;;;;9.60;77.40;;;;;;5028198;28;19942;-73
2023/04/21 02:14:36;;;;;;;;;;;9.60;77.40;;;;;;5027835;28;20266;-74
2023/04/21 02:17:02;;;;;;;;;;;9.60;77.40;;;;;;5028056;28;20416;-74
2023/04/21 02:19:28;;;;;;;;;;;9.50;77.40;;;;;;5010500;28;19917;-73
2023/04/21 02:21:54;;;;;;;;;;;9.50;77.60;;;;;;5028081;28;19916;-73
2023/04/21 02:24:20;;;;;;;;;;;9.60;77.60;;;;;;5028046;28;19940;-74
2023/04/21 02:26:45;;;;;;;;;;;9.60;77.60;;;;;;5027884;28;20340;-73
2023/04/21 02:29:11;;;;;;;;;;;9.60;78.00;;;;;;5010087;28;19913;-73
2023/04/21 02:31:37;;;;;;;;;;;9.50;77.40;;;;;;5028053;28;19925;-73
2023/04/21 02:34:02;;;;;;;;;;;9.50;77.50;;;;;;5010164;28;20463;-73
2023/04/21 02:36:28;;;;;;;;;;;9.50;77.40;;;;;;5010070;28;19963;-73
2023/04/21 02:38:54;;;;;;;;;;;9.50;77.30;;;;;;5027801;28;19917;-73
2023/04/21 02:41:19;;;;;;;;;;;9.50;77.20;;;;;;5027845;28;19909;-73
2023/04/21 02:43:45;;;;;;;;;;;9.40;77.20;;;;;;5027848;28;20004;-73
2023/04/21 02:46:10;;;;;;;;;;;9.40;77.30;;;;;;5009899;28;20379;-73
2023/04/21 02:48:36;;;;;;;;;;;9.40;77.20;;;;;;5027888;28;19909;-73
2023/04/21 02:51:03;;;;;;;;;;;9.40;77.20;;;;;;5027827;28;20290;-73
2023/04/21 02:53:28;;;;;;;;;;;9.30;77.10;;;;;;5010216;28;19963;-73
2023/04/21 02:55:54;;;;;;;;;;;9.30;77.30;;;;;;5027754;28;19917;-74
2023/04/21 02:58:20;;;;;;;;;;;9.30;77.30;;;;;;5010092;28;19991;-74
2023/04/21 03:00:45;;;;;;;;;;;9.20;77.40;;;;;;5009845;28;19917;-74
2023/04/21 03:03:11;;;;;;;;;;;9.20;77.40;;;;;;5009845;28;20292;-73
2023/04/21 03:05:36;;;;;;;;;;;9.20;77.40;;;;;;4993509;28;19913;-74
2023/04/21 03:08:02;;;;;;;;;;;9.20;77.40;;;;;;5009894;28;19963;-74
2023/04/21 03:10:27;;;;;;;;;;;9.20;77.40;;;;;;5027548;28;19909;-73
2023/04/21 03:12:54;;;;;;;;;;;9.10;77.30;;;;;;5027402;28;19999;-74
2023/04/21 03:15:21;;;;;;;;;;;9.10;77.40;;;;;;5030581;28;20257;-74
2023/04/21 03:17:47;;;;;;;;;;;9.10;77.40;;;;;;5031180;28;20345;-73
2023/04/21 03:20:12;;;;;;;;;;;9.10;77.40;;;;;;5031312;28;20097;-74
2023/04/21 03:22:38;;;;;;;;;;;9.10;77.30;;;;;;5013616;28;19948;-74
2023/04/21 03:25:04;;;;;;;;;;;9.10;77.40;;;;;;5031199;28;20281;-74
2023/04/21 03:27:30;;;;;;;;;;;9.10;77.40;;;;;;5031037;28;19939;-73
2023/04/21 03:29:55;;;;;;;;;;;9.10;77.50;;;;;;5031105;28;20007;-73
2023/04/21 03:32:21;;;;;;;;;;;9.10;77.50;;;;;;4993411;28;19929;-73
2023/04/21 03:34:47;;;;;;;;;;;9.10;77.50;;;;;;5009704;28;19921;-73
2023/04/21 03:37:12;;;;;;;;;;;9.10;77.50;;;;;;5011107;28;19918;-73
2023/04/21 03:39:38;;;;;;;;;;;9.10;77.50;;;;;;5011117;28;19921;-74
2023/04/21 03:42:03;;;;;;;;;;;9.10;77.50;;;;;;5011028;28;19928;-73
2023/04/21 03:44:29;;;;;;;;;;;9.10;77.50;;;;;;5010908;28;19913;-73
2023/04/21 03:46:56;;;;;;;;;;;9.10;77.50;;;;;;5010798;28;19940;-73
2023/04/21 03:49:22;;;;;;;;;;;9.10;77.50;;;;;;5009592;28;20003;-73
2023/04/21 03:51:47;;;;;;;;;;;9.10;77.50;;;;;;5010915;28;19956;-74
2023/04/21 03:54:13;;;;;;;;;;;9.20;77.60;;;;;;5010796;28;19932;-73
2023/04/21 03:56:38;;;;;;;;;;;9.20;77.50;;;;;;5010682;28;19921;-73
2023/04/21 03:59:04;;;;;;;;;;;9.20;77.40;;;;;;5009273;28;19999;-73
2023/04/21 04:01:30;;;;;;;;;;;9.20;77.50;;;;;;5010475;28;20366;-73
2023/04/21 04:03:56;;;;;;;;;;;9.20;77.50;;;;;;5010503;28;19913;-74
2023/04/21 04:06:21;;;;;;;;;;;9.20;77.50;;;;;;5010395;28;20247;-73
2023/04/21 04:08:47;;;;;;;;;;;9.20;77.50;;;;;;5009532;28;20000;-74
2023/04/21 04:11:13;;;;;;;;;;;9.10;77.40;;;;;;5010475;28;20366;-74
2023/04/21 04:13:38;;;;;;;;;;;9.10;77.50;;;;;;5010350;28;20040;-74
2023/04/21 04:16:04;;;;;;;;;;;9.10;77.50;;;;;;5010438;28;19913;-74
2023/04/21 04:18:29;;;;;;;;;;;9.10;77.50;;;;;;5009446;28;20000;-74
2023/04/21 04:20:55;;;;;;;;;;;9.10;77.50;;;;;;5010366;28;19913;-74
2023/04/21 04:23:21;;;;;;;;;;;9.10;77.50;;;;;;5008982;28;20289;-74
2023/04/21 04:25:47;;;;;;;;;;;9.10;77.50;;;;;;5008121;28;19949;-74
2023/04/21 04:28:14;;;;;;;;;;;9.10;77.50;;;;;;5010097;28;19921;-74
2023/04/21 04:30:40;;;;;;;;;;;9.10;77.50;;;;;;5010336;28;20278;-74
2023/04/21 04:33:05;;;;;;;;;;;9.10;77.50;;;;;;5008677;28;19980;-74
2023/04/21 04:35:31;;;;;;;;;;;9.10;77.50;;;;;;5008773;28;19910;-74
2023/04/21 04:37:57;;;;;;;;;;;9.10;77.50;;;;;;5008814;28;19953;-74
2023/04/21 04:40:23;;;;;;;;;;;9.10;77.50;;;;;;5009978;28;20011;-74
2023/04/21 04:42:50;;;;;;;;;;;9.10;77.60;;;;;;5008765;28;19925;-74
2023/04/21 04:45:15;;;;;;;;;;;9.10;77.60;;;;;;5009923;28;19913;-74
2023/04/21 04:47:42;;;;;;;;;;;9.20;77.80;;;;;;5010001;28;20350;-74
2023/04/21 04:50:08;;;;;;;;;;;9.30;77.80;;;;;;5009859;28;19917;-74
2023/04/21 04:52:33;;;;;;;;;;;9.30;77.80;;;;;;5009696;28;20273;-74
2023/04/21 04:54:59;;;;;;;;;;;9.40;77.70;;;;;;5009542;28;19913;-74
2023/04/21 04:57:25;;;;;;;;;;;9.50;77.70;;;;;;5009418;28;19972;-74
2023/04/21 04:59:54;;;;;;;;;;;9.50;77.70;;;;;;5009504;28;19914;-74
2023/04/21 05:02:21;;;;;;;;;;;9.50;77.80;;;;;;5009622;28;20444;-74
2023/04/21 05:04:46;;;;;;;;;;;9.60;77.80;;;;;;5009550;28;20451;-74
2023/04/21 05:07:12;;;;;;;;;;;9.60;77.70;;;;;;5009430;28;19921;-74
2023/04/21 05:09:37;;;;;;;;;;;9.60;77.60;;;;;;5008482;28;19916;-74
2023/04/21 05:12:03;;;;;;;;;;;9.50;77.60;;;;;;5009291;28;20361;-74
2023/04/21 05:14:29;;;;;;;;;;;9.50;77.60;;;;;;5009358;28;20294;-74
2023/04/21 05:16:54;;;;;;;;;;;9.50;77.60;;;;;;5009498;28;19960;-74
2023/04/21 05:19:20;;;;;;;;;;;9.40;77.60;;;;;;5009093;28;19914;-74
2023/04/21 05:21:46;;;;;;;;;;;9.40;77.70;;;;;;5009279;28;19914;-74
2023/04/21 05:24:11;;;;;;;;;;;9.40;77.70;;;;;;5009200;28;19941;-74
2023/04/21 05:26:37;;;;;;;;;;;9.40;77.90;;;;;;5009273;28;20328;-74
2023/04/21 05:29:02;;;;;;;;;;;9.50;77.90;;;;;;5009174;28;19917;-74
2023/04/21 05:31:28;;;;;;;;;;;9.50;77.90;;;;;;5008774;28;19914;-74
2023/04/21 05:33:53;;;;;;;;;;;9.60;77.90;;;;;;5025123;28;19925;-74
2023/04/21 05:36:23;;;;;;;;;;;9.50;77.80;;;;;;5027823;28;20289;-74
2023/04/21 05:38:49;;;;;;;;;;;9.50;77.80;;;;;;5028445;28;19917;-74
2023/04/21 05:41:15;;;;;;;;;;;9.50;77.80;;;;;;5028379;28;20528;-74
2023/04/21 05:43:40;;;;;;;;;;;9.50;77.80;;;;;;4994397;28;19920;-75
2023/04/21 05:46:12;;;;;;;;;;;9.50;77.90;;;;;;5028336;28;19955;-74
2023/04/21 05:48:37;;;;;;;;;;;9.50;77.90;;;;;;5028406;28;19921;-75
2023/04/21 05:51:10;;;;;;;;;;;9.50;77.90;;;;;;5010337;28;19909;-74
2023/04/21 05:53:36;;;;;;;;;;;9.50;77.90;;;;;;5010468;28;19987;-74
2023/04/21 05:56:02;;;;;;;;;;;9.50;77.80;;;;;;5028069;28;19928;-74
2023/04/21 05:58:27;;;;;;;;;;;9.50;77.90;;;;;;5027818;28;19939;-74
2023/04/21 06:00:53;;;;;;;;;;;9.50;77.90;;;;;;5028183;28;20385;-74
2023/04/21 06:03:18;;;;;;;;;;;9.60;77.90;;;;;;5010277;28;19936;-74
2023/04/21 06:05:44;;;;;;;;;;;9.60;77.90;;;;;;5028130;28;19949;-74
2023/04/21 06:08:09;;;;;;;;;;;9.60;77.90;;;;;;5027973;28;19913;-74
2023/04/21 06:10:35;;;;;;;;;;;9.60;78.00;;;;;;5010659;28;19975;-73
2023/04/21 06:13:01;;;;;;;;;;;9.70;78.00;;;;;;5010292;28;20262;-74
2023/04/21 06:15:26;;;;;;;;;;;9.70;77.90;;;;;;5027908;28;19913;-74
2023/04/21 06:17:53;;;;;;;;;;;9.80;77.80;;;;;;5010162;28;19926;-74
2023/04/21 06:20:19;;;;;;;;;;;9.70;77.80;;;;;;5028333;28;19914;-74
2023/04/21 06:22:45;;;;;;;;;;;9.80;77.90;;;;;;5027895;28;19940;-74
2023/04/21 06:25:10;;;;;;;;;;;9.80;78.00;;;;;;5027876;28;20024;-74
2023/04/21 06:27:36;;;;;;;;;;;9.80;78.10;;;;;;5027677;28;19916;-75
2023/04/21 06:30:01;;;;;;;;;;;9.90;78.10;;;;;;5027761;28;20003;-74
2023/04/21 06:32:27;;;;;;;;;;;10.00;78.20;;;;;;5027557;28;19925;-74
2023/04/21 06:34:53;;;;;;;;;;;10.00;78.20;;;;;;5027552;28;19929;-74
2023/04/21 06:37:18;;;;;;;;;;;10.10;78.20;;;;;;5027694;28;19921;-74
2023/04/21 06:39:44;;;;;;;;;;;10.20;78.20;;;;;;5027656;28;19909;-74
2023/04/21 06:42:09;;;;;;;;;;;10.30;78.20;;;;;;5027584;28;19963;-74
2023/04/21 06:44:36;;;;;;;;;;;10.30;78.10;;;;;;5027792;28;20266;-74
2023/04/21 06:47:02;;;;;;;;;;;10.40;78.20;;;;;;5010001;28;19985;-75
2023/04/21 06:49:27;;;;;;;;;;;10.40;78.10;;;;;;5029169;28;19932;-74
2023/04/21 06:51:53;;;;;;;;;;;10.40;78.00;;;;;;5031486;28;20016;-74
2023/04/21 06:54:19;;;;;;;;;;;10.50;78.10;;;;;;5031437;28;20282;-74
2023/04/21 06:56:44;;;;;;;;;;;10.60;78.20;;;;;;5013398;28;19919;-74
2023/04/21 06:59:10;;;;;;;;;;;10.70;78.60;;;;;;5013049;28;19913;-74
2023/04/21 07:01:35;;;;;;;;;;;10.70;78.20;;;;;;5031099;28;19914;-74
2023/04/21 07:04:01;;;;;;;;;;;10.90;78.30;;;;;;5031639;28;19918;-74
2023/04/21 07:06:27;;;;;;;;;;;11.10;78.30;;;;;;5031202;28;19913;-74
2023/04/21 07:08:52;;;;;;;;;;;11.30;78.40;;;;;;5031430;28;20287;-74
2023/04/21 07:11:18;;;;;;;;;;;11.50;78.40;;;;;;5032176;28;19984;-75
2023/04/21 07:13:43;;;;;;;;;;;11.70;78.40;;;;;;5031243;28;19944;-74
2023/04/21 07:16:09;;;;;;;;;;;12.10;78.70;;;;;;5031050;28;19917;-74
2023/04/21 07:18:35;;;;;;;;;;;12.40;78.50;;;;;;5031035;28;19956;-74
2023/04/21 07:21:00;;;;;;;;;;;12.60;78.20;;;;;;5013416;28;19973;-75
2023/04/21 07:23:26;;;;;;;;;;;12.70;77.80;;;;;;5031265;28;19921;-74
2023/04/21 07:25:52;;;;;;;;;;;12.60;77.80;;;;;;4996816;28;20266;-74
2023/04/21 07:28:17;;;;;;;;;;;12.70;78.20;;;;;;5030520;28;19928;-74
2023/04/21 07:30:43;;;;;;;;;;;12.70;78.30;;;;;;5030704;28;19920;-74
2023/04/21 07:33:08;;;;;;;;;;;12.90;78.80;;;;;;5030450;28;19925;-74
2023/04/21 07:35:34;;;;;;;;;;;13.10;78.70;;;;;;5030614;28;19909;-74
2023/04/21 07:38:00;;;;;;;;;;;13.20;78.70;;;;;;5030255;28;20324;-75
2023/04/21 07:40:25;;;;;;;;;;;13.30;78.70;;;;;;5030334;28;20013;-74
2023/04/21 07:42:51;;;;;;;;;;;13.50;78.60;;;;;;5030296;28;20373;-74
2023/04/21 07:45:17;;;;;;;;;;;13.60;78.70;;;;;;5029984;28;19921;-74
2023/04/21 07:47:42;;;;;;;;;;;14.00;79.00;;;;;;5012218;28;19939;-73
2023/04/21 07:50:08;;;;;;;;;;;14.30;79.00;;;;;;5012254;28;19913;-74
2023/04/21 07:52:34;;;;;;;;;;;14.70;78.70;;;;;;5029837;28;20257;-74
2023/04/21 07:55:00;;;;;;;;;;;14.80;78.10;;;;;;5029780;28;20047;-75
2023/04/21 07:57:25;;;;;;;;;;;15.00;78.70;;;;;;5029826;28;20020;-75
2023/04/21 07:59:51;;;;;;;;;;;15.10;78.40;;;;;;5029413;28;19920;-75
2023/04/21 08:02:16;;;;;;;;;;;15.10;78.60;;;;;;5011498;28;19920;-74
2023/04/21 08:04:42;;;;;;;;;;;15.20;78.60;;;;;;5030388;28;20048;-75
2023/04/21 08:07:08;;;;;;;;;;;15.40;79.10;;;;;;5030432;28;19910;-74
2023/04/21 08:09:34;;;;;;;;;;;16.20;80.40;;;;;;5030600;28;19924;-74
2023/04/21 08:12:01;;;;;;;;;;;17.40;80.50;;;;;;5030754;28;19913;-78
2023/04/21 08:14:27;;;;;;;;;;;18.70;80.70;;;;;;5032999;28;19921;-73
2023/04/21 08:16:52;;;;;;;;;;;19.80;80.20;;;;;;5040736;28;19913;-74
2023/04/21 08:19:18;;;;;;;;;;;20.40;79.10;;;;;;5023931;28;20267;-73
2023/04/21 08:21:44;;;;;;;;;;;20.20;78.40;;;;;;5040637;28;20425;-73
2023/04/21 08:24:09;;;;;;;;;;;19.60;78.00;;;;;;5035774;28;19917;-73
2023/04/21 08:26:35;;;;;;;;;;;18.70;78.00;;;;;;5039257;28;20016;-73
2023/04/21 08:29:01;;;;;;;;;;;17.90;78.10;;;;;;5049113;28;19966;-73
2023/04/21 08:31:26;;;;;;;;;;;17.10;78.40;;;;;;5021707;28;20369;-73
2023/04/21 08:33:52;;;;;;;;;;;16.50;78.90;;;;;;5020550;28;20380;-72
2023/04/21 08:36:19;;;;;;;;;;;16.10;79.40;;;;;;5038103;28;19955;-72
2023/04/21 08:38:45;;;;;;;;;;;15.90;79.60;;;;;;5041593;28;19913;-72
2023/04/21 08:41:10;;;;;;;;;;;15.60;79.60;;;;;;5038934;28;19909;-73
2023/04/21 08:43:36;;;;;;;;;;;15.50;80.00;;;;;;5020132;28;20346;-73
2023/04/21 08:46:04;;;;;;;;;;;15.50;80.00;;;;;;5040885;28;19928;-73
2023/04/21 08:48:30;;;;;;;;;;;15.40;79.90;;;;;;5037875;28;20269;-72
2023/04/21 08:50:56;;;;;;;;;;;15.60;80.90;;;;;;5040636;28;19917;-73
2023/04/21 08:53:22;;;;;;;;;;;16.40;81.60;;;;;;5038573;28;19923;-73
2023/04/21 08:55:52;;;;;;;;;;;17.30;81.90;;;;;;5041290;28;19936;-73
2023/04/21 08:58:17;;;;;;;;;;;18.30;81.90;;;;;;5045401;28;19917;-73
2023/04/21 09:00:43;;;;;;;;;;;19.10;81.50;;;;;;5038985;28;19921;-74
2023/04/21 09:03:09;;;;;;;;;;;19.80;81.60;;;;;;5030508;28;19921;-72
2023/04/21 09:05:36;;;;;;;;;;;20.40;81.90;;;;;;5011829;28;19990;-73
2023/04/21 09:08:09;;;;;;;;;;;20.80;81.00;;;;;;5037724;28;20006;-72
2023/04/21 09:10:42;;;;;;;;;;;20.60;80.10;;;;;;5037501;28;19932;-72
2023/04/21 09:13:08;;;;;;;;;;;19.90;79.50;;;;;;5029315;28;20258;-72
2023/04/21 09:15:40;;;;;;;;;;;19.20;79.80;;;;;;5029535;28;19955;-72
2023/04/21 09:18:10;;;;;;;;;;;18.70;79.70;;;;;;5011636;28;19917;-72
2023/04/21 09:20:35;;;;;;;;;;;18.20;79.90;;;;;;5011448;28;19913;-72
2023/04/21 09:23:03;;;;;;;;;;;17.70;80.00;;;;;;5028904;28;19913;-72
2023/04/21 09:25:30;;;;;;;;;;;17.30;80.30;;;;;;5036560;28;19917;-72
2023/04/21 09:27:56;;;;;;;;;;;17.00;80.30;;;;;;5037669;28;19909;-71
2023/04/21 09:30:22;;;;;;;;;;;16.80;80.50;;;;;;5020969;28;19920;-72
2023/04/21 09:32:48;;;;;;;;;;;16.80;80.60;;;;;;5020114;28;19936;-72
2023/04/21 09:35:14;;;;;;;;;;;16.70;80.30;;;;;;5037455;28;19916;-71
2023/04/21 09:37:42;;;;;;;;;;;16.60;80.40;;;;;;5031625;28;19913;-72
2023/04/21 09:40:07;;;;;;;;;;;16.60;80.10;;;;;;5029294;28;19909;-72
2023/04/21 09:42:34;;;;;;;;;;;16.50;79.90;;;;;;5028921;28;19918;-72
2023/04/21 09:45:00;;;;;;;;;;;16.40;80.10;;;;;;5011149;28;20531;-72
2023/04/21 09:47:28;;;;;;;;;;;16.30;80.20;;;;;;5029718;28;19913;-78
2023/04/21 09:49:53;;;;;;;;;;;16.30;80.50;;;;;;5033492;28;19948;-78
2023/04/21 09:52:19;;;;;;;;;;;16.40;80.30;;;;;;5042003;28;19959;-78
2023/04/21 09:54:49;;;;;;;;;;;16.30;80.00;;;;;;5049337;28;19921;-78
2023/04/21 09:57:19;;;;;;;;;;;16.30;80.10;;;;;;5036210;28;19916;-80
2023/04/21 09:59:46;;;;;;;;;;;16.50;80.20;;;;;;5049390;28;19913;-80
2023/04/21 10:02:12;;;;;;;;;;;16.60;80.30;;;;;;5050258;28;19982;-79
2023/04/21 10:04:40;;;;;;;;;;;16.70;80.40;;;;;;5049428;28;19917;-77
2023/04/21 10:07:05;;;;;;;;;;;16.70;80.20;;;;;;5048996;28;19908;-77
2023/04/21 10:09:37;;;;;;;;;;;16.80;80.00;;;;;;5049797;28;20426;-75
2023/04/21 10:12:03;;;;;;;;;;;16.70;80.00;;;;;;5049002;28;20403;-77
2023/04/21 10:14:29;;;;;;;;;;;16.60;79.90;;;;;;5030919;28;19913;-75
2023/04/21 10:16:55;;;;;;;;;;;16.50;79.80;;;;;;5048913;28;20272;-76
2023/04/21 10:19:23;;;;;;;;;;;16.50;79.70;;;;;;5048949;28;19916;-77
2023/04/21 10:21:49;;;;;;;;;;;16.40;79.60;;;;;;5031086;28;19909;-78
2023/04/21 10:24:14;;;;;;;;;;;16.40;79.50;;;;;;5030647;28;19909;-77
2023/04/21 10:26:40;;;;;;;;;;;16.30;79.40;;;;;;5049340;28;19971;-75
2023/04/21 10:29:06;;;;;;;;;;;16.10;79.50;;;;;;5049061;28;20012;-75
2023/04/21 10:31:33;;;;;;;;;;;15.90;79.50;;;;;;5031854;28;19924;-77
2023/04/21 10:34:07;;;;;;;;;;;15.80;79.70;;;;;;5048567;28;20007;-75
2023/04/21 10:36:51;;;;;;;;;;;15.70;79.70;;;;;;5048816;28;20577;-74
2023/04/21 10:39:27;;;;;;;;;;;15.70;79.80;;;;;;5030283;28;20203;-76
2023/04/21 10:41:57;;;;;;;;;;;15.60;79.70;;;;;;5049132;28;19991;-78
2023/04/21 10:44:23;;;;;;;;;;;15.40;79.60;;;;;;5048962;28;19924;-77
2023/04/21 10:46:50;;;;;;;;;;;15.40;80.00;;;;;;5048851;28;19912;-78
2023/04/21 10:49:22;;;;;;;;;;;15.40;80.10;;;;;;5049294;28;20429;-78
2023/04/21 10:52:01;;;;;;;;;;;15.50;80.20;;;;;;5049096;28;19919;-77
2023/04/21 10:54:26;;;;;;;;;;;15.50;80.10;;;;;;5048922;28;20314;-77
2023/04/21 10:56:53;;;;;;;;;;;15.50;80.00;;;;;;5047921;28;19991;-76
2023/04/21 10:59:19;;;;;;;;;;;15.60;80.00;;;;;;5047981;28;19916;-77
2023/04/21 11:01:44;;;;;;;;;;;15.70;79.70;;;;;;5048022;28;19909;-78
2023/04/21 11:04:14;;;;;;;;;;;15.50;79.60;;;;;;5028017;28;19916;-78
2023/04/21 11:06:40;;;;;;;;;;;15.40;79.80;;;;;;5040585;28;19991;-78
2023/04/21 11:09:05;;;;;;;;;;;15.50;80.10;;;;;;5033678;28;19959;-78
2023/04/21 11:11:31;;;;;;;;;;;15.70;80.60;;;;;;5043265;28;19956;-78
2023/04/21 11:14:00;;;;;;;;;;;16.00;80.80;;;;;;5035261;28;19913;-78
2023/04/21 11:16:26;;;;;;;;;;;16.50;81.40;;;;;;5018141;28;19924;-79
2023/04/21 11:18:51;;;;;;;;;;;17.70;82.80;;;;;;5046064;28;19909;-78
2023/04/21 11:21:20;;;;;;;;;;;18.80;82.10;;;;;;5045928;28;19991;-77
2023/04/21 11:23:48;;;;;;;;;;;19.30;81.50;;;;;;5048444;28;20054;-75
2023/04/21 11:26:14;;;;;;;;;;;19.30;80.70;;;;;;5048357;28;19917;-76
2023/04/21 11:28:40;;;;;;;;;;;19.00;80.40;;;;;;5047905;28;19963;-76
2023/04/21 11:31:06;;;;;;;;;;;18.60;80.50;;;;;;5048465;28;20007;-76
2023/04/21 11:33:36;;;;;;;;;;;18.40;80.80;;;;;;5048246;28;20023;-77
2023/04/21 11:36:08;;;;;;;;;;;18.50;81.60;;;;;;5050288;28;19909;-77
2023/04/21 11:38:37;;;;;;;;;;;18.70;81.80;;;;;;5051405;28;20390;-73
2023/04/21 11:41:03;;;;;;;;;;;18.90;81.90;;;;;;5051674;28;20357;-76
2023/04/21 11:43:29;;;;;;;;;;;19.00;81.50;;;;;;5053187;28;20004;-76
2023/04/21 11:45:54;;;;;;;;;;;19.10;81.30;;;;;;5051940;28;20426;-76
2023/04/21 11:48:20;;;;;;;;;;;19.30;81.50;;;;;;5033911;28;20396;-73
2023/04/21 11:50:49;;;;;;;;;;;19.70;82.50;;;;;;5033201;28;19935;-74
2023/04/21 11:53:15;;;;;;;;;;;20.10;82.00;;;;;;5051106;28;20248;-76
2023/04/21 11:55:41;;;;;;;;;;;20.00;81.60;;;;;;5050554;28;20325;-74
2023/04/21 11:58:07;;;;;;;;;;;20.00;81.60;;;;;;5050670;28;20312;-70
2023/04/21 12:00:32;;;;;;;;;;;20.10;81.50;;;;;;5051464;28;19963;-71
2023/04/21 12:02:58;;;;;;;;;;;20.10;81.20;;;;;;5033300;28;19913;-74
2023/04/21 12:05:24;;;;;;;;;;;19.90;81.00;;;;;;5050798;28;19967;-74
2023/04/21 12:07:51;;;;;;;;;;;19.90;81.40;;;;;;5050493;28;19917;-73
2023/04/21 12:10:18;;;;;;;;;;;20.00;82.20;;;;;;5050900;28;19959;-75
2023/04/21 12:12:43;;;;;;;;;;;20.40;82.90;;;;;;5050822;28;20361;-74
2023/04/21 12:15:10;;;;;;;;;;;20.70;82.60;;;;;;5050302;28;19924;-73
2023/04/21 12:17:46;;;;;;;;;;;21.20;83.00;;;;;;5041679;28;19916;-76
2023/04/21 12:20:12;;;;;;;;;;;21.70;83.40;;;;;;5042928;28;19965;-73
2023/04/21 12:22:37;;;;;;;;;;;22.30;83.20;;;;;;5049279;28;20399;-71
2023/04/21 12:25:04;;;;;;;;;;;22.60;82.80;;;;;;5041288;28;19913;-71
2023/04/21 12:27:29;;;;;;;;;;;23.00;82.60;;;;;;5039298;28;20003;-71
2023/04/21 12:29:55;;;;;;;;;;;23.00;82.40;;;;;;5040173;28;20071;-71
2023/04/21 12:32:21;;;;;;;;;;;23.20;82.60;;;;;;5040880;28;20559;-72
2023/04/21 12:34:46;;;;;;;;;;;23.30;82.60;;;;;;5039920;28;19923;-73
2023/04/21 12:37:12;;;;;;;;;;;23.30;82.80;;;;;;5021341;28;19917;-73
2023/04/21 12:39:37;;;;;;;;;;;23.40;82.70;;;;;;5039871;28;20265;-75
2023/04/21 12:42:03;;;;;;;;;;;23.50;83.20;;;;;;5050692;28;19944;-77
2023/04/21 12:44:29;;;;;;;;;;;23.80;82.90;;;;;;5050439;28;20028;-76
2023/04/21 12:46:56;;;;;;;;;;;23.80;82.50;;;;;;5031344;28;20270;-74
2023/04/21 12:49:22;;;;;;;;;;;23.60;82.60;;;;;;5049975;28;19919;-74
2023/04/21 12:51:48;;;;;;;;;;;23.70;83.40;;;;;;5049273;28;20007;-77
2023/04/21 12:54:14;;;;;;;;;;;23.80;83.60;;;;;;5049488;28;19918;-74
2023/04/21 12:56:41;;;;;;;;;;;24.00;83.80;;;;;;5049794;28;19909;-75
2023/04/21 12:59:07;;;;;;;;;;;24.20;83.30;;;;;;5049381;28;19997;-75
2023/04/21 13:01:33;;;;;;;;;;;24.00;83.40;;;;;;5049513;28;19927;-76
2023/04/21 13:03:59;;;;;;;;;;;23.80;83.50;;;;;;5049902;28;20007;-76
2023/04/21 13:06:25;;;;;;;;;;;23.70;83.30;;;;;;5049601;28;19913;-76
2023/04/21 13:08:50;;;;;;;;;;;23.60;83.50;;;;;;5031512;28;19915;-76
2023/04/21 13:11:16;;;;;;;;;;;23.50;83.60;;;;;;5049630;28;19912;-75
2023/04/21 13:13:41;;;;;;;;;;;23.40;83.70;;;;;;5031574;28;19995;-73
2023/04/21 13:16:07;;;;;;;;;;;23.30;83.60;;;;;;5049549;28;19935;-74
2023/04/21 13:18:33;;;;;;;;;;;23.20;83.60;;;;;;5031691;28;19913;-76
2023/04/21 13:21:00;;;;;;;;;;;23.10;83.30;;;;;;5049569;28;19952;-76
2023/04/21 13:23:25;;;;;;;;;;;22.90;83.40;;;;;;5049384;28;19948;-76
2023/04/21 13:25:51;;;;;;;;;;;22.90;83.90;;;;;;5039572;28;19949;-75
2023/04/21 13:28:18;;;;;;;;;;;22.90;83.80;;;;;;5029381;28;20003;-74
2023/04/21 13:30:44;;;;;;;;;;;22.80;83.20;;;;;;5029581;28;20071;-74
2023/04/21 13:33:10;;;;;;;;;;;22.30;82.60;;;;;;5029186;28;20412;-71
2023/04/21 13:35:36;;;;;;;;;;;21.80;82.20;;;;;;5033609;28;19917;-72
2023/04/21 13:38:01;;;;;;;;;;;21.40;82.20;;;;;;5034401;28;19995;-73
2023/04/21 13:40:27;;;;;;;;;;;21.00;82.40;;;;;;5036980;28;20012;-72
2023/04/21 13:42:53;;;;;;;;;;;20.70;82.20;;;;;;5034176;28;19962;-72
2023/04/21 13:45:18;;;;;;;;;;;20.40;82.20;;;;;;5037921;28;19921;-73
2023/04/21 13:47:44;;;;;;;;;;;20.30;82.20;;;;;;5038449;28;19913;-73
2023/04/21 13:50:10;;;;;;;;;;;20.10;82.00;;;;;;5019111;28;20404;-72
2023/04/21 13:52:35;;;;;;;;;;;19.90;81.80;;;;;;5018459;28;19916;-73
2023/04/21 13:55:02;;;;;;;;;;;19.80;81.90;;;;;;5036675;28;19916;-73
2023/04/21 13:57:28;;;;;;;;;;;19.80;82.20;;;;;;5037869;28;20377;-74
2023/04/21 13:59:53;;;;;;;;;;;19.90;82.10;;;;;;5040853;28;19967;-76
2023/04/21 14:02:22;;;;;;;;;;;19.90;81.40;;;;;;5036290;28;20292;-73
2023/04/21 14:04:48;;;;;;;;;;;19.90;81.30;;;;;;5039800;28;19921;-74
2023/04/21 14:07:16;;;;;;;;;;;19.70;81.10;;;;;;5016821;28;19921;-74
2023/04/21 14:09:42;;;;;;;;;;;19.60;80.80;;;;;;5029353;28;19919;-75
2023/04/21 14:12:09;;;;;;;;;;;19.30;80.50;;;;;;5028910;28;19913;-72
2023/04/21 14:14:34;;;;;;;;;;;18.90;80.50;;;;;;5029152;28;19979;-72
2023/04/21 14:17:00;;;;;;;;;;;18.80;80.90;;;;;;5029204;28;19921;-72